aviador You're here:

YMML Decoded Metar

MELBOURNE in AUSTRALIA
Report Time2018-07-23 11:30:00
UTC Time2018-07-23 11:42:44
Flight Rules vfr VFR
Wind360° at 29 Gusting to 40 kt
W.Decomp.*RWY 34: 28.6 kt HW 4.5 kt RCW
RWY 27: 5.5 kt HW 28.5 kt RCW
Visibility9999 m
Phenomena:Shower Rain
Clouds:Few 030 Hf
Broken 045 Hf
Broken 170 Hf
Expected CloudBase > 1,600 ft AGL from Temp-Dew spread
Ceiling17,000 ft
Temp08°C (ISA -6)
Dew Point04°C (76% RH)
AAT-3.8°C
QNH1005 hPa
Density Alt118 ft
Elevation463 ft
Report Wrong Elevation
Raw Report
SPECI YMML 231130Z 36029G40KT 9999 FEW030 BKN170 08/04 Q1005 INTER
1230/1430 5000 SHRA BKN045 FM1130 MOD/SEV TURB BLW 5000FT=

Extra information for YMML:More info

Metar Taf Metar & Taf Last 4 Metars F.Rules Stats Wind Profile Meteogram Temp Stats Airport Information Weather charts Add Link Nearby VenuesMetar ALERT Operation Metar Decoded Social comments